LiveATC.Net - Listen to live air traffic control over the Internet!


ICAO: TNCE  IATA: EUX   Airport: F. D. Roosevelt Airport
City: Oranjestad
Country: Sint Eustatius   Continent: South America
TNCE METAR Weather: TNCE 262155Z AUTO 05009KT 020V080 //// // ///////// 25/20 Q1015 RE//
TNCE Flight Activity (FlightAware)

TNCE Info
Feed Status: UP   Listeners: 0
Listen in your browser - HTML5 player (in browser, HTML5)
Click here to listen with your own player (launches your MP3 player)
Archive Access: TNCE Info
FacilityFrequency
Statia Info118.100

NOTICE

Unauthorized use prohibited. See LiveATC.net Terms of Service


Airport/ARTCC Code
Frequency Search
(e.g., 124.400, 128.75)
Site-wide search
 


Browse Feeds
Top 50 Feeds
HF Oceanic Feeds
Coverage Map
Bad Weather Areas

LiveATC FAQ
Offer LiveATC feed
Contact LiveATC.net
Press Inquiries

LiveATC on iPhone
LiveATC on Android

LiveATC Mobile
(Mobile browser)

ATC Audio Archives
Interesting Recordings

LiveATC Forums


Home Page
About LiveATC.net
Make a Donation
Terms of Use
Privacy Policy

Canadian Air Freqs

AIRMETs/SIGMETs

FAA Airport Status
NAS Status
Arrival Demand


Server Software By:
Icecast.org
Liquidsoap